Time;durP1;ratioP1;P1;durP2;ratioP2;P2;SDS_P1;SDS_P2;PMS_P1;PMS_P2;Temp;Humidity;BMP_temperature;BMP_pressure;BME280_temperature;BME280_humidity;BME280_pressure;Samples;Min_cycle;Max_cycle;Signal;HPM_P1;HPM_P2
2023/08/10 00:01:34;;;;;;;0.73;0.73;;;23.20;62.60;;;;;;6303233;22;20254;-83
2023/08/10 00:04:02;;;;;;;0.20;0.20;;;23.20;62.70;;;;;;6302490;22;20480;-84
2023/08/10 00:06:30;;;;;;;0.77;0.70;;;23.10;62.90;;;;;;6304430;22;20169;-83
2023/08/10 00:09:00;;;;;;;0.22;0.22;;;23.10;63.00;;;;;;6302714;22;20169;-83
2023/08/10 00:11:29;;;;;;;0.20;0.20;;;23.10;63.00;;;;;;6304454;22;20176;-85
2023/08/10 00:13:57;;;;;;;0.20;0.20;;;23.00;63.00;;;;;;6303107;22;20174;-84
2023/08/10 00:16:26;;;;;;;0.30;0.30;;;23.00;63.00;;;;;;6303222;22;20588;-82
2023/08/10 00:18:54;;;;;;;0.20;0.20;;;23.00;63.00;;;;;;6304900;22;20201;-83
2023/08/10 00:21:23;;;;;;;0.30;0.30;;;22.90;63.20;;;;;;6303181;22;20196;-84
2023/08/10 00:23:52;;;;;;;1.02;0.20;;;22.90;63.30;;;;;;6304536;22;20927;-83
2023/08/10 00:26:22;;;;;;;0.20;0.20;;;22.90;63.30;;;;;;6303676;22;20178;-83
2023/08/10 00:28:50;;;;;;;0.20;0.20;;;22.90;63.30;;;;;;6303035;22;20682;-83
2023/08/10 00:31:19;;;;;;;0.25;0.25;;;22.80;63.40;;;;;;6304011;22;20219;-83
2023/08/10 00:33:48;;;;;;;0.30;0.30;;;22.80;63.50;;;;;;6304565;22;20165;-84
2023/08/10 00:36:16;;;;;;;0.38;0.32;;;22.80;63.60;;;;;;6302069;22;20176;-83
2023/08/10 00:38:45;;;;;;;0.28;0.28;;;22.70;63.60;;;;;;6303513;22;20626;-84
2023/08/10 00:41:14;;;;;;;0.20;0.20;;;22.70;63.80;;;;;;6303667;22;20200;-83
2023/08/10 00:43:44;;;;;;;0.75;0.30;;;22.70;63.90;;;;;;6303718;22;20239;-84
2023/08/10 00:46:13;;;;;;;0.30;0.30;;;22.60;65.30;;;;;;6303754;22;20166;-84
2023/08/10 00:48:42;;;;;;;0.63;0.50;;;22.60;64.60;;;;;;6304438;22;20169;-84
2023/08/10 00:51:11;;;;;;;1.20;0.68;;;22.50;65.10;;;;;;6302960;22;20165;-84
2023/08/10 00:53:40;;;;;;;0.35;0.35;;;22.50;65.10;;;;;;6303060;22;20523;-84
2023/08/10 00:56:11;;;;;;;0.60;0.60;;;22.50;65.20;;;;;;6303994;22;20238;-83
2023/08/10 00:58:41;;;;;;;1.48;1.05;;;22.50;65.40;;;;;;6305126;22;20532;-83
2023/08/10 01:01:11;;;;;;;0.30;0.30;;;22.40;65.50;;;;;;6303250;22;20204;-84
2023/08/10 01:03:40;;;;;;;0.20;0.20;;;22.40;65.50;;;;;;6303625;22;20161;-85
2023/08/10 01:06:16;;;;;;;0.38;0.38;;;22.40;65.70;;;;;;6303923;22;20180;-82
2023/08/10 01:08:54;;;;;;;0.38;0.30;;;22.30;65.80;;;;;;6278538;22;20602;-83
2023/08/10 01:11:33;;;;;;;0.40;0.40;;;22.30;65.70;;;;;;6303572;22;20165;-83
2023/08/10 01:14:10;;;;;;;0.30;0.30;;;22.30;65.80;;;;;;6303457;22;20153;-84
2023/08/10 01:16:43;;;;;;;0.20;0.20;;;22.30;65.90;;;;;;6278915;22;20178;-83
2023/08/10 01:19:24;;;;;;;0.22;0.22;;;22.30;66.10;;;;;;6306184;22;20630;-82
2023/08/10 01:22:02;;;;;;;0.30;0.30;;;22.20;66.20;;;;;;6306066;22;20216;-82
2023/08/10 01:24:34;;;;;;;0.30;0.30;;;22.20;66.20;;;;;;6304404;22;20176;-82
2023/08/10 01:27:05;;;;;;;0.73;0.20;;;22.20;66.60;;;;;;6305444;22;20607;-83
2023/08/10 01:29:33;;;;;;;0.70;0.70;;;22.20;66.50;;;;;;6278480;22;20210;-82
2023/08/10 01:32:03;;;;;;;0.40;0.38;;;22.20;66.70;;;;;;6278520;22;20244;-82
2023/08/10 01:34:32;;;;;;;0.50;0.40;;;22.20;66.60;;;;;;6305437;22;20201;-82
2023/08/10 01:37:00;;;;;;;0.80;0.60;;;22.10;66.60;;;;;;6304805;22;20169;-82
2023/08/10 01:39:29;;;;;;;7.65;0.93;;;22.20;66.80;;;;;;6304646;22;20162;-83
2023/08/10 01:41:58;;;;;;;0.40;0.40;;;22.10;67.10;;;;;;6305025;22;20204;-82
2023/08/10 01:44:28;;;;;;;0.30;0.30;;;22.10;67.40;;;;;;6305414;22;20169;-82
2023/08/10 01:47:01;;;;;;;0.28;0.28;;;22.10;67.40;;;;;;6305367;22;20165;-84
2023/08/10 01:49:34;;;;;;;0.38;0.38;;;22.10;67.40;;;;;;6306424;22;20153;-82
2023/08/10 01:52:08;;;;;;;0.50;0.50;;;22.10;67.40;;;;;;6304863;22;20183;-83
2023/08/10 01:54:38;;;;;;;0.43;0.43;;;22.10;67.70;;;;;;6279443;22;20169;-84
2023/08/10 01:57:07;;;;;;;0.32;0.30;;;22.00;67.80;;;;;;6278815;22;20177;-84
2023/08/10 01:59:38;;;;;;;0.38;0.38;;;22.00;68.00;;;;;;6278504;22;20629;-82
2023/08/10 02:02:06;;;;;;;0.30;0.30;;;22.00;67.90;;;;;;6305054;22;20264;-83
2023/08/10 02:04:35;;;;;;;0.30;0.30;;;22.00;68.10;;;;;;6278531;22;20173;-84
2023/08/10 02:07:04;;;;;;;1.40;1.00;;;21.90;68.00;;;;;;6304704;22;20538;-83
2023/08/10 02:09:33;;;;;;;0.38;0.38;;;21.90;68.00;;;;;;6304817;22;20189;-82
2023/08/10 02:12:02;;;;;;;5.93;1.20;;;21.90;68.00;;;;;;6304274;22;20626;-83
2023/08/10 02:14:32;;;;;;;0.30;0.30;;;21.90;68.00;;;;;;6304879;22;20196;-83
2023/08/10 02:17:03;;;;;;;2.08;1.13;;;21.90;68.00;;;;;;6305316;22;20171;-83
2023/08/10 02:19:32;;;;;;;0.50;0.50;;;21.90;68.20;;;;;;6277913;22;20162;-82
2023/08/10 02:22:00;;;;;;;0.40;0.40;;;21.90;68.20;;;;;;6303634;22;20200;-83
2023/08/10 02:24:30;;;;;;;0.28;0.28;;;21.90;68.30;;;;;;6303877;22;20192;-83
2023/08/10 02:26:59;;;;;;;0.20;0.20;;;21.90;68.50;;;;;;6303333;22;20162;-83
2023/08/10 02:29:27;;;;;;;0.20;0.20;;;21.90;69.40;;;;;;6305317;22;20169;-83
2023/08/10 02:31:56;;;;;;;0.20;0.20;;;21.90;68.60;;;;;;6305988;22;20171;-83
2023/08/10 02:34:25;;;;;;;0.52;0.50;;;21.80;68.80;;;;;;6304713;22;20173;-83
2023/08/10 02:36:54;;;;;;;0.65;0.57;;;21.80;68.90;;;;;;6305463;22;20161;-83
2023/08/10 02:39:22;;;;;;;0.22;0.22;;;21.80;69.10;;;;;;6305654;22;20168;-83
2023/08/10 02:41:51;;;;;;;0.47;0.38;;;21.80;69.40;;;;;;6304579;22;20185;-83
2023/08/10 02:44:20;;;;;;;0.82;0.50;;;21.80;69.90;;;;;;6305282;22;20169;-83
2023/08/10 02:46:49;;;;;;;1.20;0.38;;;21.70;70.10;;;;;;6305288;22;20165;-82
2023/08/10 02:49:17;;;;;;;0.25;0.25;;;21.70;70.20;;;;;;6304445;22;20173;-85
2023/08/10 02:51:47;;;;;;;0.38;0.38;;;21.70;70.50;;;;;;6304308;22;20169;-84
2023/08/10 02:54:15;;;;;;;0.38;0.38;;;21.70;70.60;;;;;;6303730;22;20173;-83
2023/08/10 02:56:44;;;;;;;0.50;0.50;;;21.70;70.80;;;;;;6304301;22;20176;-84
2023/08/10 02:59:13;;;;;;;0.28;0.28;;;21.70;71.10;;;;;;6304962;22;20161;-84
2023/08/10 03:01:45;;;;;;;0.65;0.60;;;21.60;71.00;;;;;;6304079;22;20207;-85
2023/08/10 03:04:14;;;;;;;0.20;0.20;;;21.60;71.20;;;;;;6277887;22;20233;-84
2023/08/10 03:06:42;;;;;;;0.63;0.55;;;21.60;71.30;;;;;;6305021;22;20169;-85
2023/08/10 03:09:13;;;;;;;0.28;0.28;;;21.60;72.10;;;;;;6304304;22;20165;-84
2023/08/10 03:11:41;;;;;;;0.35;0.35;;;21.60;72.20;;;;;;6304749;22;20199;-84
2023/08/10 03:14:10;;;;;;;0.32;0.32;;;21.60;72.40;;;;;;6303325;22;20176;-83
2023/08/10 03:16:38;;;;;;;2.92;1.65;;;21.50;72.80;;;;;;6304171;22;20169;-84
2023/08/10 03:19:07;;;;;;;1.60;0.65;;;21.50;73.30;;;;;;6304575;22;20689;-84
2023/08/10 03:21:36;;;;;;;0.45;0.40;;;21.50;73.10;;;;;;6304760;22;20463;-82
2023/08/10 03:24:05;;;;;;;1.23;0.60;;;21.50;73.40;;;;;;6304091;22;20161;-84
2023/08/10 03:26:35;;;;;;;1.02;0.73;;;21.50;73.60;;;;;;6302963;22;20165;-83
2023/08/10 03:29:04;;;;;;;0.73;0.38;;;21.50;73.30;;;;;;6304315;22;20165;-83
2023/08/10 03:31:33;;;;;;;0.20;0.20;;;21.50;73.40;;;;;;6304218;22;20165;-84
2023/08/10 03:34:01;;;;;;;0.32;0.32;;;21.50;73.60;;;;;;6304428;22;20165;-82
2023/08/10 03:36:30;;;;;;;0.30;0.30;;;21.50;73.60;;;;;;6278015;22;20165;-83
2023/08/10 03:38:59;;;;;;;0.50;0.50;;;21.50;73.40;;;;;;6303200;22;20248;-84
2023/08/10 03:41:27;;;;;;;0.30;0.30;;;21.50;73.40;;;;;;6304367;22;20243;-84
2023/08/10 03:43:58;;;;;;;0.20;0.20;;;21.50;73.70;;;;;;6277207;22;20250;-84
2023/08/10 03:46:27;;;;;;;0.20;0.20;;;21.50;73.60;;;;;;6299613;22;20481;-83
2023/08/10 03:48:55;;;;;;;0.30;0.30;;;21.50;73.60;;;;;;6299853;22;21064;-82
2023/08/10 03:51:24;;;;;;;1.45;0.40;;;21.50;73.60;;;;;;6302541;22;20598;-83
2023/08/10 03:53:53;;;;;;;0.40;0.40;;;21.50;73.60;;;;;;6303504;22;20650;-84
2023/08/10 03:56:21;;;;;;;0.20;0.20;;;21.60;73.70;;;;;;6303629;22;20169;-84
2023/08/10 03:58:49;;;;;;;0.50;0.50;;;21.60;73.80;;;;;;6304512;22;20173;-83
2023/08/10 04:01:22;;;;;;;0.20;0.20;;;21.60;73.80;;;;;;6303026;22;20180;-84
2023/08/10 04:03:50;;;;;;;0.20;0.20;;;21.60;73.70;;;;;;6303671;22;20473;-83
2023/08/10 04:06:19;;;;;;;0.30;0.30;;;21.60;73.60;;;;;;6301946;22;20561;-83
2023/08/10 04:08:48;;;;;;;0.20;0.20;;;21.60;73.60;;;;;;6302463;22;20165;-83
2023/08/10 04:11:17;;;;;;;0.95;0.43;;;21.60;74.10;;;;;;6302438;22;20188;-83
2023/08/10 04:13:47;;;;;;;0.85;0.85;;;21.60;74.10;;;;;;6275940;22;20169;-83
2023/08/10 04:16:16;;;;;;;0.82;0.65;;;21.70;74.40;;;;;;6303348;22;20862;-83
2023/08/10 04:18:47;;;;;;;0.28;0.28;;;21.60;74.40;;;;;;6276924;22;20173;-84
2023/08/10 04:21:16;;;;;;;0.43;0.43;;;21.70;74.70;;;;;;6302671;22;20888;-83
2023/08/10 04:23:44;;;;;;;0.20;0.20;;;21.70;74.40;;;;;;6275619;22;20206;-82
2023/08/10 04:26:13;;;;;;;0.28;0.28;;;21.70;74.70;;;;;;6301846;22;20177;-81
2023/08/10 04:28:42;;;;;;;2.92;0.90;;;21.80;74.90;;;;;;6300419;22;20180;-82
2023/08/10 04:31:11;;;;;;;1.08;0.55;;;21.80;75.70;;;;;;6301960;22;20153;-83
2023/08/10 04:33:40;;;;;;;1.13;0.82;;;21.70;76.30;;;;;;6277199;22;20256;-83
2023/08/10 04:36:10;;;;;;;0.63;0.63;;;21.80;76.50;;;;;;6303282;22;20166;-84
2023/08/10 04:38:39;;;;;;;1.05;1.05;;;21.80;77.10;;;;;;6302743;22;20176;-84
2023/08/10 04:41:08;;;;;;;0.50;0.40;;;21.80;76.80;;;;;;6302466;22;20165;-84
2023/08/10 04:43:36;;;;;;;0.15;0.15;;;21.80;76.30;;;;;;6303223;22;20234;-84
2023/08/10 04:46:05;;;;;;;2.20;0.40;;;21.80;76.30;;;;;;6302838;22;20173;-83
2023/08/10 04:48:37;;;;;;;0.32;0.32;;;21.90;76.30;;;;;;6303529;22;20168;-87
2023/08/10 04:51:06;;;;;;;0.30;0.30;;;21.90;76.20;;;;;;6306396;22;20169;-84
2023/08/10 04:53:36;;;;;;;0.35;0.35;;;21.90;76.10;;;;;;6306501;22;20164;-84
2023/08/10 04:56:05;;;;;;;0.20;0.20;;;22.00;76.10;;;;;;6305643;22;20603;-83
2023/08/10 04:58:33;;;;;;;0.77;0.65;;;22.00;76.20;;;;;;6306648;22;20204;-83
2023/08/10 05:01:03;;;;;;;0.20;0.20;;;22.00;76.20;;;;;;6276875;22;20653;-83
2023/08/10 05:03:31;;;;;;;0.30;0.30;;;22.10;76.20;;;;;;6278193;22;20200;-84
2023/08/10 05:06:00;;;;;;;4.15;1.48;;;22.10;76.10;;;;;;6303297;22;20303;-83
2023/08/10 05:08:29;;;;;;;0.22;0.22;;;22.10;76.10;;;;;;6305189;22;20169;-83
2023/08/10 05:10:59;;;;;;;0.30;0.30;;;22.10;76.10;;;;;;6278820;22;20188;-83
2023/08/10 05:13:27;;;;;;;0.30;0.30;;;22.20;75.90;;;;;;6305060;22;20501;-83
2023/08/10 05:15:56;;;;;;;1.10;0.95;;;22.20;75.90;;;;;;6304356;22;20171;-85
2023/08/10 05:18:24;;;;;;;1.33;0.77;;;22.30;76.20;;;;;;6306180;22;20219;-84
2023/08/10 05:20:53;;;;;;;0.38;0.38;;;22.30;76.80;;;;;;6305507;22;20188;-85
2023/08/10 05:23:21;;;;;;;1.33;0.55;;;22.30;77.00;;;;;;6306260;22;20193;-84
2023/08/10 05:25:50;;;;;;;0.30;0.30;;;22.30;77.20;;;;;;6305371;22;20166;-82
2023/08/10 05:28:19;;;;;;;0.40;0.40;;;22.30;77.20;;;;;;6302362;22;20215;-84
2023/08/10 05:30:48;;;;;;;0.55;0.30;;;22.40;77.00;;;;;;6303024;22;20172;-82
2023/08/10 05:33:16;;;;;;;0.52;0.50;;;22.40;76.80;;;;;;6302501;22;20171;-82
2023/08/10 05:35:46;;;;;;;0.68;0.68;;;22.40;76.90;;;;;;6306325;22;20256;-85
2023/08/10 05:38:14;;;;;;;0.55;0.55;;;22.50;77.20;;;;;;6305675;22;20165;-85
2023/08/10 05:40:43;;;;;;;0.20;0.20;;;22.50;76.90;;;;;;6306657;22;20665;-82
2023/08/10 05:43:11;;;;;;;0.20;0.20;;;22.60;76.80;;;;;;6305100;22;20203;-84
2023/08/10 05:45:44;;;;;;;6.57;0.73;;;22.60;76.60;;;;;;6305154;22;20668;-84
2023/08/10 05:48:13;;;;;;;0.40;0.40;;;22.70;76.60;;;;;;6303469;22;20680;-84
2023/08/10 05:50:42;;;;;;;0.20;0.20;;;22.80;76.60;;;;;;6303298;22;20235;-81
2023/08/10 05:53:11;;;;;;;0.30;0.30;;;22.80;76.60;;;;;;6304532;22;20232;-82
2023/08/10 05:55:39;;;;;;;0.32;0.32;;;22.90;76.50;;;;;;6304926;22;20174;-81
2023/08/10 05:58:08;;;;;;;0.30;0.30;;;22.90;76.30;;;;;;6306028;22;20177;-83
2023/08/10 06:00:38;;;;;;;1.00;0.85;;;23.00;76.10;;;;;;6306047;22;20201;-83
2023/08/10 06:03:08;;;;;;;0.20;0.20;;;23.00;76.00;;;;;;6305071;22;20628;-83
2023/08/10 06:05:37;;;;;;;0.20;0.20;;;23.10;75.80;;;;;;6305333;22;20189;-83
2023/08/10 06:08:07;;;;;;;0.35;0.35;;;23.10;75.70;;;;;;6306552;22;20240;-83
2023/08/10 06:10:36;;;;;;;0.55;0.30;;;23.20;75.50;;;;;;6305909;22;20574;-82
2023/08/10 06:13:05;;;;;;;0.75;0.45;;;23.20;75.40;;;;;;6305442;22;20292;-83
2023/08/10 06:15:33;;;;;;;0.63;0.40;;;23.30;75.30;;;;;;6306681;22;20252;-83
2023/08/10 06:18:02;;;;;;;0.20;0.20;;;23.30;75.10;;;;;;6302265;22;20244;-82
2023/08/10 06:20:33;;;;;;;0.40;0.40;;;23.40;75.00;;;;;;6306531;22;20165;-82
2023/08/10 06:23:02;;;;;;;0.20;0.20;;;23.40;74.90;;;;;;6305607;22;20161;-82
2023/08/10 06:25:31;;;;;;;0.20;0.20;;;23.50;74.80;;;;;;6305079;22;20279;-82
2023/08/10 06:28:00;;;;;;;0.30;0.25;;;23.60;74.70;;;;;;6306456;22;20188;-83
2023/08/10 06:30:28;;;;;;;0.57;0.30;;;23.60;74.60;;;;;;6304942;22;20540;-81
2023/08/10 06:32:57;;;;;;;0.47;0.40;;;23.70;74.40;;;;;;6306139;22;20166;-83
2023/08/10 06:35:26;;;;;;;0.38;0.30;;;23.70;74.20;;;;;;6306747;22;20173;-84
2023/08/10 06:37:56;;;;;;;0.50;0.50;;;23.80;74.00;;;;;;6303679;22;20176;-82
2023/08/10 06:40:25;;;;;;;0.30;0.30;;;23.80;74.00;;;;;;6276495;22;20245;-83
2023/08/10 06:42:56;;;;;;;0.20;0.20;;;23.90;73.90;;;;;;6304704;22;20549;-82
2023/08/10 06:45:24;;;;;;;0.30;0.30;;;23.90;73.90;;;;;;6304955;22;20523;-82
2023/08/10 06:47:53;;;;;;;0.52;0.30;;;23.90;73.80;;;;;;6305765;22;20169;-82
2023/08/10 06:50:21;;;;;;;0.30;0.30;;;23.90;73.80;;;;;;6305985;22;20173;-83
2023/08/10 06:52:50;;;;;;;1.13;0.90;;;24.00;73.70;;;;;;6304302;22;20177;-83
2023/08/10 06:55:20;;;;;;;0.70;0.70;;;24.00;73.60;;;;;;6252839;22;20222;-82
2023/08/10 06:57:50;;;;;;;0.63;0.63;;;24.10;73.60;;;;;;6305551;22;20627;-83
2023/08/10 07:00:22;;;;;;;0.40;0.40;;;24.10;73.60;;;;;;6305676;22;20154;-82
2023/08/10 07:02:55;;;;;;;0.50;0.50;;;24.10;73.40;;;;;;6279989;22;20157;-84
2023/08/10 07:05:26;;;;;;;0.20;0.20;;;24.30;73.40;;;;;;6305442;22;20284;-84
2023/08/10 07:07:55;;;;;;;0.43;0.40;;;24.30;73.20;;;;;;6303160;22;20158;-83
2023/08/10 07:10:27;;;;;;;0.28;0.25;;;24.30;73.00;;;;;;6302720;22;20193;-83
2023/08/10 07:12:55;;;;;;;1.23;0.40;;;24.40;72.80;;;;;;6306422;22;20158;-82
2023/08/10 07:15:24;;;;;;;0.20;0.20;;;24.50;72.60;;;;;;6278806;22;20171;-81
2023/08/10 07:17:52;;;;;;;0.60;0.52;;;24.50;72.20;;;;;;6303128;22;20177;-82
2023/08/10 07:20:22;;;;;;;0.50;0.40;;;24.60;72.00;;;;;;6303616;22;20169;-83
2023/08/10 07:22:51;;;;;;;0.30;0.30;;;24.70;72.00;;;;;;6305112;22;20714;-84
2023/08/10 07:25:20;;;;;;;0.20;0.20;;;24.80;71.90;;;;;;6303494;22;20203;-82
2023/08/10 07:27:50;;;;;;;0.28;0.28;;;24.80;71.70;;;;;;6303867;22;20537;-85
2023/08/10 07:30:19;;;;;;;0.38;0.38;;;24.90;71.40;;;;;;6302007;22;20252;-84
2023/08/10 07:32:48;;;;;;;0.10;0.10;;;25.00;71.20;;;;;;6300113;22;20226;-85
2023/08/10 07:35:17;;;;;;;0.30;0.30;;;25.20;71.10;;;;;;6304574;22;20157;-84
2023/08/10 07:37:48;;;;;;;0.73;0.30;;;25.20;69.80;;;;;;6304900;22;20165;-82
2023/08/10 07:40:17;;;;;;;0.30;0.30;;;25.20;68.60;;;;;;6302905;22;20465;-84
2023/08/10 07:42:46;;;;;;;0.30;0.30;;;25.30;67.60;;;;;;6278421;22;20675;-84
2023/08/10 07:45:16;;;;;;;0.20;0.20;;;25.40;67.30;;;;;;6277169;22;20275;-84
2023/08/10 07:47:45;;;;;;;0.30;0.30;;;25.40;66.90;;;;;;6302003;22;20514;-84
2023/08/10 07:50:14;;;;;;;0.32;0.32;;;25.50;65.90;;;;;;6302594;22;20242;-83
2023/08/10 07:52:42;;;;;;;0.52;0.52;;;25.60;66.00;;;;;;6305316;22;20467;-85
2023/08/10 07:55:12;;;;;;;0.20;0.20;;;25.60;65.80;;;;;;6300059;22;20165;-84
2023/08/10 07:57:41;;;;;;;0.30;0.30;;;25.80;66.20;;;;;;6305582;22;20157;-83
2023/08/10 08:00:11;;;;;;;0.30;0.30;;;25.90;66.30;;;;;;6277752;22;20169;-85
2023/08/10 08:02:41;;;;;;;0.73;0.60;;;26.00;66.20;;;;;;6302789;22;20165;-85
2023/08/10 08:05:11;;;;;;;0.63;0.60;;;26.10;65.80;;;;;;6303830;22;20181;-84
2023/08/10 08:07:40;;;;;;;0.20;0.20;;;26.10;65.10;;;;;;6304437;22;20176;-84
2023/08/10 08:10:09;;;;;;;0.20;0.20;;;26.20;65.50;;;;;;6303385;22;20533;-83
2023/08/10 08:12:37;;;;;;;0.30;0.30;;;26.30;64.60;;;;;;6303305;22;20169;-84
2023/08/10 08:15:07;;;;;;;0.40;0.40;;;26.30;64.90;;;;;;6303363;22;20871;-83
2023/08/10 08:18:09;;;;;;;0.30;0.30;;;26.50;65.10;;;;;;6304818;22;20169;-83
2023/08/10 08:20:40;;;;;;;0.20;0.20;;;26.50;65.10;;;;;;6304551;22;20168;-88
2023/08/10 08:23:08;;;;;;;3.10;1.30;;;26.60;64.30;;;;;;6279279;22;20161;-85
2023/08/10 08:25:37;;;;;;;0.30;0.30;;;26.60;64.00;;;;;;6302238;22;20205;-87
2023/08/10 08:28:08;;;;;;;0.20;0.20;;;26.70;63.60;;;;;;6306576;22;20470;-85
2023/08/10 08:30:36;;;;;;;0.35;0.30;;;26.80;63.60;;;;;;6306035;22;20203;-83
2023/08/10 08:33:06;;;;;;;0.52;0.50;;;26.90;63.00;;;;;;6305112;22;20665;-84
2023/08/10 08:35:35;;;;;;;1.00;0.50;;;27.00;62.50;;;;;;6253653;22;20180;-84
2023/08/10 08:38:06;;;;;;;0.35;0.35;;;27.10;62.60;;;;;;6304956;22;20172;-84
2023/08/10 08:40:35;;;;;;;0.10;0.10;;;27.20;62.40;;;;;;6306585;22;20161;-84
2023/08/10 08:43:05;;;;;;;0.30;0.30;;;27.20;62.20;;;;;;6307161;22;20505;-85
2023/08/10 08:45:34;;;;;;;0.45;0.30;;;27.30;62.30;;;;;;6305191;22;20185;-86
2023/08/10 08:48:05;;;;;;;0.38;0.38;;;27.40;61.70;;;;;;6277964;22;20240;-86
2023/08/10 08:50:35;;;;;;;0.60;0.57;;;27.50;59.30;;;;;;6276648;22;20158;-84
2023/08/10 08:53:08;;;;;;;0.43;0.30;;;27.50;59.40;;;;;;6277828;22;20176;-83
2023/08/10 08:55:38;;;;;;;0.20;0.20;;;27.60;59.20;;;;;;6277794;22;20161;-84
2023/08/10 08:58:06;;;;;;;0.20;0.20;;;27.60;59.20;;;;;;6305033;22;20172;-82
2023/08/10 09:00:35;;;;;;;0.88;0.82;;;27.70;58.90;;;;;;6304627;22;20176;-85
2023/08/10 09:03:04;;;;;;;0.30;0.30;;;27.80;58.50;;;;;;6305206;22;20165;-83
2023/08/10 09:05:34;;;;;;;0.25;0.25;;;27.80;58.10;;;;;;6306113;22;20192;-82
2023/08/10 09:08:03;;;;;;;0.20;0.20;;;27.80;58.00;;;;;;6304800;22;20248;-86
2023/08/10 09:10:33;;;;;;;0.20;0.20;;;27.80;57.50;;;;;;6301183;22;20275;-86
2023/08/10 09:13:11;;;;;;;0.40;0.40;;;27.90;58.00;;;;;;6304100;22;20157;-86
2023/08/10 09:15:40;;;;;;;2.45;0.68;;;27.90;57.80;;;;;;6278393;22;20553;-85
2023/08/10 09:18:09;;;;;;;0.22;0.22;;;27.90;57.00;;;;;;6306260;22;20551;-85
2023/08/10 09:20:37;;;;;;;1.30;0.75;;;28.00;56.50;;;;;;6303614;22;20177;-86
2023/08/10 09:23:06;;;;;;;0.40;0.40;;;28.00;56.70;;;;;;6306323;22;20641;-85
2023/08/10 09:25:38;;;;;;;0.20;0.20;;;28.00;56.20;;;;;;6307104;22;20689;-84
2023/08/10 09:28:13;;;;;;;0.65;0.28;;;28.10;56.80;;;;;;6277659;22;20501;-83
2023/08/10 09:30:42;;;;;;;1.13;0.40;;;28.20;57.10;;;;;;6278224;22;20173;-86
2023/08/10 09:33:28;;;;;;;0.32;0.30;;;28.30;55.80;;;;;;6307020;22;20170;-86
2023/08/10 09:36:00;;;;;;;0.20;0.20;;;28.20;54.00;;;;;;6305802;22;20489;-85
2023/08/10 09:38:29;;;;;;;0.30;0.30;;;28.20;53.40;;;;;;6304823;22;20511;-86
2023/08/10 09:41:13;;;;;;;0.20;0.20;;;28.30;54.30;;;;;;6304382;22;20623;-86
2023/08/10 09:43:44;;;;;;;0.35;0.20;;;28.40;54.80;;;;;;6305832;22;20478;-80
2023/08/10 09:46:15;;;;;;;0.20;0.20;;;28.50;55.00;;;;;;6305674;22;20185;-82
2023/08/10 09:48:48;;;;;;;0.47;0.47;;;28.60;55.00;;;;;;6306918;22;20161;-83
2023/08/10 09:51:17;;;;;;;2.53;1.08;;;28.70;54.60;;;;;;6304849;22;20485;-83
2023/08/10 09:53:46;;;;;;;0.10;0.10;;;28.80;54.20;;;;;;6305525;22;20173;-82
2023/08/10 09:56:17;;;;;;;0.30;0.30;;;28.90;54.50;;;;;;6305243;22;20181;-82
2023/08/10 09:58:46;;;;;;;0.20;0.20;;;29.00;54.30;;;;;;6305640;22;20240;-84
2023/08/10 10:01:16;;;;;;;0.20;0.20;;;29.00;54.00;;;;;;6305080;22;20165;-86
2023/08/10 10:03:45;;;;;;;0.15;0.15;;;29.10;53.40;;;;;;6306683;22;20211;-86
2023/08/10 10:06:16;;;;;;;0.20;0.20;;;29.20;53.40;;;;;;6305305;22;20572;-84
2023/08/10 10:08:56;;;;;;;0.20;0.20;;;29.30;52.80;;;;;;6306643;22;20227;-83
2023/08/10 10:11:28;;;;;;;0.20;0.20;;;29.30;51.90;;;;;;6305311;22;20164;-83
2023/08/10 10:13:58;;;;;;;0.95;0.30;;;29.30;51.30;;;;;;6305159;22;20638;-87
2023/08/10 10:16:27;;;;;;;0.40;0.40;;;29.30;51.60;;;;;;6279022;22;20188;-85
2023/08/10 10:18:56;;;;;;;0.30;0.30;;;29.40;51.00;;;;;;6305306;22;20172;-86
2023/08/10 10:21:25;;;;;;;0.47;0.40;;;29.50;50.90;;;;;;6276563;22;20165;-87
2023/08/10 10:23:55;;;;;;;0.50;0.47;;;29.50;51.30;;;;;;6306455;22;20161;-85
2023/08/10 10:26:25;;;;;;;0.20;0.20;;;29.50;49.40;;;;;;6306050;22;20690;-86
2023/08/10 10:29:12;;;;;;;0.20;0.20;;;29.50;49.60;;;;;;6305187;22;20153;-87
2023/08/10 10:31:41;;;;;;;0.40;0.40;;;29.50;49.80;;;;;;6305539;22;20480;-85
2023/08/10 10:34:14;;;;;;;0.35;0.30;;;29.50;50.10;;;;;;6306648;22;20188;-88
2023/08/10 10:36:43;;;;;;;0.20;0.20;;;29.50;49.20;;;;;;6305401;22;20402;-87
2023/08/10 10:39:20;;;;;;;0.75;0.45;;;29.50;49.30;;;;;;6306338;22;20207;-87
2023/08/10 10:41:52;;;;;;;0.20;0.20;;;29.40;49.10;;;;;;6305546;22;20861;-88
2023/08/10 10:44:21;;;;;;;0.28;0.28;;;29.40;48.90;;;;;;6304661;22;20172;-85
2023/08/10 10:46:49;;;;;;;0.20;0.20;;;29.40;48.90;;;;;;6306010;22;20189;-86
2023/08/10 10:49:21;;;;;;;0.43;0.40;;;29.40;49.00;;;;;;6302430;22;20278;-87
2023/08/10 10:51:54;;;;;;;3.42;0.70;;;29.40;48.70;;;;;;6304430;22;20171;-88
2023/08/10 10:54:24;;;;;;;1.52;0.77;;;29.40;48.40;;;;;;6304963;22;20189;-86
2023/08/10 10:56:55;;;;;;;0.32;0.30;;;29.40;48.70;;;;;;6305830;22;20615;-84
2023/08/10 10:59:24;;;;;;;2.90;0.28;;;29.30;48.00;;;;;;6305735;22;20165;-84
2023/08/10 11:01:54;;;;;;;0.63;0.63;;;29.40;48.40;;;;;;6304026;22;20172;-85
2023/08/10 11:04:24;;;;;;;0.22;0.22;;;29.50;48.60;;;;;;6305103;22;20176;-82
2023/08/10 11:06:58;;;;;;;2.83;1.20;;;29.50;48.20;;;;;;6302995;22;20276;-85
2023/08/10 11:09:27;;;;;;;0.30;0.20;;;29.50;47.80;;;;;;6304225;22;20254;-86
2023/08/10 11:11:58;;;;;;;0.30;0.20;;;29.60;48.20;;;;;;6300049;22;20644;-85
2023/08/10 11:14:31;;;;;;;0.20;0.20;;;29.60;47.80;;;;;;6304384;22;20157;-89
2023/08/10 11:17:02;;;;;;;0.20;0.20;;;29.60;47.90;;;;;;6306199;22;20606;-85
2023/08/10 11:19:34;;;;;;;0.43;0.43;;;29.60;48.10;;;;;;6278935;22;20157;-86
2023/08/10 11:22:03;;;;;;;0.15;0.15;;;29.70;47.50;;;;;;6304365;22;20160;-85
2023/08/10 11:24:33;;;;;;;0.43;0.40;;;29.70;47.60;;;;;;6304171;22;20179;-83
2023/08/10 11:27:03;;;;;;;0.80;0.50;;;29.80;48.10;;;;;;6277749;22;20197;-84
2023/08/10 11:29:32;;;;;;;0.20;0.20;;;29.80;48.20;;;;;;6303317;22;20173;-85
2023/08/10 11:32:01;;;;;;;4.78;0.88;;;29.90;47.70;;;;;;6304084;22;20173;-83
2023/08/10 11:34:30;;;;;;;0.20;0.20;;;30.00;47.70;;;;;;6304574;22;20161;-84
2023/08/10 11:36:59;;;;;;;0.40;0.35;;;30.10;48.00;;;;;;6303718;22;20168;-83
2023/08/10 11:39:28;;;;;;;10.43;1.35;;;30.00;46.70;;;;;;6304546;22;20626;-84
2023/08/10 11:41:56;;;;;;;0.20;0.20;;;29.90;46.90;;;;;;6303186;22;20195;-84
2023/08/10 11:44:47;;;;;;;0.43;0.43;;;29.90;46.80;;;;;;6304898;22;20188;-83
2023/08/10 11:47:15;;;;;;;0.40;0.40;;;29.90;46.30;;;;;;6303752;22;20195;-82
2023/08/10 11:49:44;;;;;;;0.20;0.20;;;29.90;46.20;;;;;;6305769;22;20169;-82
2023/08/10 11:52:15;;;;;;;0.40;0.40;;;30.00;46.60;;;;;;6302476;22;20175;-83
2023/08/10 11:54:52;;;;;;;0.40;0.40;;;30.00;47.00;;;;;;6305192;22;20244;-83
2023/08/10 11:57:22;;;;;;;0.38;0.30;;;30.10;47.00;;;;;;6304226;22;20214;-85
2023/08/10 11:59:52;;;;;;;0.28;0.20;;;30.10;47.00;;;;;;6278964;22;20633;-85
2023/08/10 12:02:21;;;;;;;0.22;0.22;;;30.20;47.20;;;;;;6277824;22;20157;-83
2023/08/10 12:05:00;;;;;;;0.32;0.32;;;30.20;47.30;;;;;;6278256;22;20166;-87
2023/08/10 12:07:29;;;;;;;0.20;0.20;;;30.30;47.30;;;;;;6303623;22;20216;-88
2023/08/10 12:10:00;;;;;;;0.20;0.20;;;30.30;46.70;;;;;;6301651;22;20546;-86
2023/08/10 12:12:29;;;;;;;0.20;0.20;;;30.40;46.90;;;;;;6305101;22;20231;-83
2023/08/10 12:15:09;;;;;;;0.25;0.25;;;30.40;45.90;;;;;;6304339;22;20169;-84
2023/08/10 12:17:38;;;;;;;0.30;0.30;;;30.50;45.50;;;;;;6301967;22;20161;-84
2023/08/10 12:20:07;;;;;;;0.20;0.20;;;30.50;46.20;;;;;;6303847;22;20563;-84
2023/08/10 12:22:40;;;;;;;0.20;0.20;;;30.60;46.10;;;;;;6304072;22;20169;-87
2023/08/10 12:25:12;;;;;;;0.30;0.30;;;30.60;46.00;;;;;;6304554;22;20160;-88
2023/08/10 12:27:41;;;;;;;0.30;0.22;;;30.70;45.90;;;;;;6279076;22;20212;-87
2023/08/10 12:30:14;;;;;;;0.20;0.20;;;30.70;45.30;;;;;;6303453;22;20157;-88
2023/08/10 12:32:43;;;;;;;0.43;0.40;;;30.70;44.90;;;;;;6304959;22;20157;-89
2023/08/10 12:35:13;;;;;;;0.20;0.20;;;30.60;44.80;;;;;;6302659;22;20179;-85
2023/08/10 12:37:41;;;;;;;0.30;0.30;;;30.50;44.30;;;;;;6301966;22;20169;-86
2023/08/10 12:40:13;;;;;;;0.28;0.28;;;30.50;44.70;;;;;;6304632;22;20172;-85
2023/08/10 12:42:43;;;;;;;0.30;0.30;;;30.50;44.80;;;;;;6277342;22;20173;-86
2023/08/10 12:45:17;;;;;;;0.57;0.57;;;30.50;44.70;;;;;;6304435;22;20165;-86
2023/08/10 12:47:46;;;;;;;1.42;0.77;;;30.50;44.80;;;;;;6305244;22;20653;-86
2023/08/10 12:50:16;;;;;;;0.35;0.35;;;30.50;44.80;;;;;;6304736;22;20196;-86
2023/08/10 12:52:47;;;;;;;0.20;0.20;;;30.60;45.20;;;;;;6305885;22;20241;-84
2023/08/10 12:55:17;;;;;;;0.75;0.32;;;30.60;45.50;;;;;;6303145;22;20957;-87
2023/08/10 12:57:46;;;;;;;0.40;0.40;;;30.50;44.20;;;;;;6305530;22;20165;-85
2023/08/10 13:00:19;;;;;;;0.40;0.40;;;30.40;44.40;;;;;;6304220;22;20169;-86
2023/08/10 13:02:49;;;;;;;0.20;0.20;;;30.40;44.50;;;;;;6305702;22;20210;-86